Time;durP1;ratioP1;P1;durP2;ratioP2;P2;SDS_P1;SDS_P2;PMS_P1;PMS_P2;Temp;Humidity;BMP_temperature;BMP_pressure;BME280_temperature;BME280_humidity;BME280_pressure;Samples;Min_cycle;Max_cycle;Signal;HPM_P1;HPM_P2
2022/11/23 00:01:26;;;;;;;;;6.00;5.00;;;;;-149.00;100.00;66333.84;5066360;28;46407;-80
2022/11/23 00:03:55;;;;;;;;;3.67;3.33;;;;;-149.00;100.00;66333.84;5064648;28;46294;-79
2022/11/23 00:06:22;;;;;;;;;4.33;4.33;;;;;-149.00;100.00;66333.84;5081242;28;45303;-78
2022/11/23 00:08:49;;;;;;;;;5.67;5.67;;;;;-149.00;100.00;66333.84;5082345;28;45400;-79
2022/11/23 00:11:15;;;;;;;;;6.00;6.00;;;;;-149.00;100.00;66333.84;5062751;28;46620;-79
2022/11/23 00:13:40;;;;;;;;;9.00;7.00;;;;;-149.00;100.00;66333.84;5064939;28;47204;-80
2022/11/23 00:16:13;;;;;;;;;6.00;6.00;;;;;-149.00;100.00;66333.84;5064231;28;46164;-79
2022/11/23 00:18:38;;;;;;;;;10.67;6.33;;;;;-149.00;100.00;66333.84;5065006;28;45302;-80
2022/11/23 00:21:13;;;;;;;;;5.33;4.33;;;;;-149.00;100.00;66333.84;5083830;28;45267;-79
2022/11/23 00:23:38;;;;;;;;;6.33;6.33;;;;;-149.00;100.00;66333.84;5082365;28;46420;-80
2022/11/23 00:26:05;;;;;;;;;6.00;3.33;;;;;-149.00;100.00;66333.84;5064366;28;45533;-79
2022/11/23 00:28:31;;;;;;;;;4.67;4.67;;;;;-149.00;100.00;66333.84;5083245;28;44839;-80
2022/11/23 00:30:56;;;;;;;;;5.67;5.00;;;;;-149.00;100.00;66333.84;5081984;28;45389;-80
2022/11/23 00:33:22;;;;;;;;;4.00;4.00;;;;;-149.00;100.00;66333.84;5084441;28;45509;-79
2022/11/23 00:35:47;;;;;;;;;5.67;5.67;;;;;-149.00;100.00;66333.84;5084150;28;46725;-80
2022/11/23 00:38:12;;;;;;;;;4.33;4.00;;;;;-149.00;100.00;66333.84;5083412;28;45371;-80
2022/11/23 00:40:38;;;;;;;;;3.67;3.67;;;;;-149.00;100.00;66333.84;5083422;28;45241;-80
2022/11/23 00:43:03;;;;;;;;;5.33;5.33;;;;;-149.00;100.00;66333.84;5066159;28;46931;-79
2022/11/23 00:45:29;;;;;;;;;6.67;5.00;;;;;-149.00;100.00;66333.84;5083835;28;45334;-79
2022/11/23 00:47:54;;;;;;;;;4.33;4.00;;;;;-149.00;100.00;66333.84;5085932;28;45268;-79
2022/11/23 00:50:19;;;;;;;;;4.67;4.00;;;;;-149.00;100.00;66333.84;5083037;28;45186;-79
2022/11/23 00:52:45;;;;;;;;;6.00;5.33;;;;;-149.00;100.00;66333.84;5064597;28;45543;-80
2022/11/23 00:55:10;;;;;;;;;7.00;6.33;;;;;-149.00;100.00;66333.84;5066725;28;45419;-79
2022/11/23 00:57:35;;;;;;;;;8.00;5.00;;;;;-149.00;100.00;66333.84;5086809;28;45166;-80
2022/11/23 01:00:01;;;;;;;;;5.33;5.00;;;;;-149.00;100.00;66333.84;5087424;28;45220;-80
2022/11/23 01:02:26;;;;;;;;;6.67;5.00;;;;;-149.00;100.00;66333.84;5083964;28;46009;-80
2022/11/23 01:04:51;;;;;;;;;5.67;5.00;;;;;-149.00;100.00;66333.84;5081153;28;45286;-80
2022/11/23 01:07:17;;;;;;;;;6.67;6.67;;;;;-149.00;100.00;66333.84;5085484;28;45229;-79
2022/11/23 01:09:42;;;;;;;;;4.33;4.00;;;;;-149.00;100.00;66333.84;5080908;28;45317;-80
2022/11/23 01:12:07;;;;;;;;;4.67;4.67;;;;;-149.00;100.00;66333.84;5085161;28;46058;-80
2022/11/23 01:14:33;;;;;;;;;7.00;5.67;;;;;-149.00;100.00;66333.84;5062669;28;45691;-79
2022/11/23 01:16:58;;;;;;;;;6.33;6.33;;;;;-149.00;100.00;66333.84;5086527;28;45758;-80
2022/11/23 01:19:24;;;;;;;;;8.33;6.00;;;;;-149.00;100.00;66333.84;5066947;28;46971;-80
2022/11/23 01:21:49;;;;;;;;;5.33;4.33;;;;;-149.00;100.00;66333.84;5067155;28;46275;-80
2022/11/23 01:24:19;;;;;;;;;6.67;6.67;;;;;-149.00;100.00;66333.84;5083003;28;45362;-79
2022/11/23 01:26:45;;;;;;;;;7.00;6.00;;;;;-149.00;100.00;66333.84;5071907;28;45246;-80
2022/11/23 01:29:11;;;;;;;;;5.33;5.33;;;;;-149.00;100.00;66333.84;5068062;28;46399;-80
2022/11/23 01:31:36;;;;;;;;;7.67;5.67;;;;;-149.00;100.00;66333.84;5068176;28;47315;-80
2022/11/23 01:34:03;;;;;;;;;6.33;6.33;;;;;-149.00;100.00;66333.84;5068053;28;45450;-80
2022/11/23 01:36:31;;;;;;;;;7.33;7.33;;;;;-149.00;100.00;66333.84;5088413;28;45786;-79
2022/11/23 01:38:58;;;;;;;;;7.00;5.33;;;;;-149.00;100.00;66333.84;5068603;28;46068;-80
2022/11/23 01:41:30;;;;;;;;;6.00;4.67;;;;;-149.00;100.00;66333.84;5089692;28;45417;-79
2022/11/23 01:43:56;;;;;;;;;4.67;4.67;;;;;-149.00;100.00;66333.84;5090022;28;45358;-80
2022/11/23 01:46:21;;;;;;;;;6.00;3.00;;;;;-149.00;100.00;66333.84;5091285;28;45262;-79
2022/11/23 01:48:53;;;;;;;;;6.00;4.33;;;;;-149.00;100.00;66333.84;5071695;28;45948;-80
2022/11/23 01:51:36;;;;;;;;;4.00;3.00;;;;;-149.00;100.00;66333.84;5075914;28;47651;-80
2022/11/23 01:54:08;;;;;;;;;4.33;4.00;;;;;-149.00;100.00;66333.84;5072523;28;46179;-80
2022/11/23 01:56:38;;;;;;;;;4.67;3.67;;;;;-149.00;100.00;66333.84;5092117;28;45700;-80
2022/11/23 01:59:09;;;;;;;;;4.00;4.00;;;;;-149.00;100.00;66333.84;5072629;28;47467;-80
2022/11/23 02:01:35;;;;;;;;;3.00;3.00;;;;;-149.00;100.00;66333.84;5070677;28;48315;-80
2022/11/23 02:04:01;;;;;;;;;4.67;3.67;;;;;-149.00;100.00;66333.84;5072505;28;45779;-80
2022/11/23 02:06:28;;;;;;;;;4.00;4.00;;;;;-149.00;100.00;66333.84;5097414;28;45331;-80
2022/11/23 02:08:55;;;;;;;;;4.00;4.00;;;;;-149.00;100.00;66333.84;5090871;28;44748;-80
2022/11/23 02:11:23;;;;;;;;;4.67;4.00;;;;;-149.00;100.00;66333.84;5079055;28;45386;-80
2022/11/23 02:13:50;;;;;;;;;4.67;4.00;;;;;-149.00;100.00;66333.84;5072641;28;45314;-80
2022/11/23 02:16:16;;;;;;;;;3.67;3.67;;;;;-149.00;100.00;66333.84;5075899;28;45251;-80
2022/11/23 02:18:44;;;;;;;;;4.67;4.00;;;;;-149.00;100.00;66333.84;5075698;28;45450;-81
2022/11/23 02:21:10;;;;;;;;;4.33;3.00;;;;;-149.00;100.00;66333.84;5095071;28;46491;-79
2022/11/23 02:24:06;;;;;;;;;4.33;4.00;;;;;-149.00;100.00;66333.84;5074319;28;46296;-79
2022/11/23 02:26:34;;;;;;;;;4.00;4.00;;;;;-149.00;100.00;66333.84;5073698;28;45482;-80
2022/11/23 02:29:15;;;;;;;;;2.67;2.67;;;;;-149.00;100.00;66333.84;5091462;28;44733;-80
2022/11/23 02:31:40;;;;;;;;;4.33;3.00;;;;;-149.00;100.00;66333.84;5076019;28;47508;-79
2022/11/23 02:34:06;;;;;;;;;3.00;3.00;;;;;-149.00;100.00;66333.84;5095447;28;45373;-80
2022/11/23 02:36:35;;;;;;;;;5.33;3.33;;;;;-149.00;100.00;66333.84;5091723;28;45429;-80
2022/11/23 02:39:07;;;;;;;;;5.00;1.67;;;;;-149.00;100.00;66333.84;5073466;28;47634;-80
2022/11/23 02:41:46;;;;;;;;;3.00;3.00;;;;;-149.00;100.00;66333.84;5094013;28;45465;-80
2022/11/23 02:44:30;;;;;;;;;4.67;4.67;;;;;-149.00;100.00;66333.84;5078284;28;45186;-80
2022/11/23 02:46:56;;;;;;;;;4.00;3.33;;;;;-149.00;100.00;66333.84;5073688;28;45256;-81
2022/11/23 02:49:22;;;;;;;;;3.67;2.67;;;;;-149.00;100.00;66333.84;5076119;28;46160;-80
2022/11/23 02:51:48;;;;;;;;;3.00;2.00;;;;;-149.00;100.00;66333.84;5095066;28;45259;-80
2022/11/23 02:54:13;;;;;;;;;2.67;2.00;;;;;-149.00;100.00;66333.84;5094045;28;45279;-81
2022/11/23 02:56:38;;;;;;;;;5.00;3.67;;;;;-149.00;100.00;66333.84;5096757;28;45166;-80
2022/11/23 02:59:04;;;;;;;;;3.00;3.00;;;;;-149.00;100.00;66333.84;5075674;28;51042;-81
2022/11/23 03:01:29;;;;;;;;;3.00;3.00;;;;;-149.00;100.00;66333.84;5074761;28;47178;-80
2022/11/23 03:03:55;;;;;;;;;3.67;3.67;;;;;-149.00;100.00;66333.84;5094445;28;45355;-80
2022/11/23 03:06:23;;;;;;;;;6.00;4.00;;;;;-149.00;100.00;66333.84;5089445;28;45349;-80
2022/11/23 03:08:48;;;;;;;;;4.00;4.00;;;;;-149.00;100.00;66333.84;5090578;28;45351;-80
2022/11/23 03:11:13;;;;;;;;;3.00;3.00;;;;;-149.00;100.00;66333.84;5090717;28;45295;-80
2022/11/23 03:13:39;;;;;;;;;5.33;3.67;;;;;-149.00;100.00;66333.84;5073651;28;45253;-80
2022/11/23 03:16:04;;;;;;;;;5.00;3.67;;;;;-149.00;100.00;66333.84;5071850;28;45321;-80
2022/11/23 03:18:29;;;;;;;;;3.67;3.00;;;;;-149.00;100.00;66333.84;5071898;28;46602;-80
2022/11/23 03:21:01;;;;;;;;;4.67;3.00;;;;;-149.00;100.00;66333.84;5088986;28;45262;-79
2022/11/23 03:23:26;;;;;;;;;4.67;3.67;;;;;-149.00;100.00;66333.84;5091144;28;45413;-79
2022/11/23 03:25:59;;;;;;;;;4.00;4.00;;;;;-149.00;100.00;66333.84;5092490;28;45319;-79
2022/11/23 03:28:24;;;;;;;;;5.33;5.33;;;;;-149.00;100.00;66333.84;5070508;28;45434;-80
2022/11/23 03:30:50;;;;;;;;;5.67;4.00;;;;;-149.00;100.00;66333.84;5088361;28;46753;-79
2022/11/23 03:33:16;;;;;;;;;5.00;4.00;;;;;-149.00;100.00;66333.84;5074117;28;45317;-80
2022/11/23 03:35:41;;;;;;;;;4.33;4.33;;;;;-149.00;100.00;66333.84;5088394;28;45378;-80
2022/11/23 03:38:07;;;;;;;;;4.00;4.00;;;;;-149.00;100.00;66333.84;5092904;28;45555;-80
2022/11/23 03:40:32;;;;;;;;;5.00;4.00;;;;;-149.00;100.00;66333.84;5073162;28;48183;-80
2022/11/23 03:42:57;;;;;;;;;6.00;5.00;;;;;-149.00;100.00;66333.84;5069833;28;45335;-79
2022/11/23 03:45:23;;;;;;;;;5.33;5.33;;;;;-149.00;100.00;66333.84;5068379;28;45253;-80
2022/11/23 03:47:48;;;;;;;;;6.67;3.67;;;;;-149.00;100.00;66333.84;5068713;28;51294;-80
2022/11/23 03:50:13;;;;;;;;;6.00;4.67;;;;;-149.00;100.00;66333.84;5065146;28;47515;-79
2022/11/23 03:52:39;;;;;;;;;5.00;3.00;;;;;-149.00;100.00;66333.84;5089614;28;45218;-79
2022/11/23 03:55:04;;;;;;;;;5.00;4.00;;;;;-149.00;100.00;66333.84;5089095;28;45358;-79
2022/11/23 03:57:30;;;;;;;;;5.00;4.00;;;;;-149.00;100.00;66333.84;5074539;28;46053;-80
2022/11/23 03:59:55;;;;;;;;;4.67;4.00;;;;;-149.00;100.00;66333.84;5088387;28;46210;-80
2022/11/23 04:02:21;;;;;;;;;6.00;5.67;;;;;-149.00;100.00;66333.84;5085481;28;45252;-79
2022/11/23 04:04:46;;;;;;;;;6.67;5.00;;;;;-149.00;100.00;66333.84;5069388;28;45351;-79
2022/11/23 04:07:11;;;;;;;;;5.00;3.33;;;;;-149.00;100.00;66333.84;5088475;28;45232;-80
2022/11/23 04:09:37;;;;;;;;;4.00;3.33;;;;;-149.00;100.00;66333.84;5092645;28;45578;-80
2022/11/23 04:12:02;;;;;;;;;5.00;4.67;;;;;-149.00;100.00;66333.84;5089918;28;45200;-80
2022/11/23 04:14:27;;;;;;;;;3.33;3.33;;;;;-149.00;100.00;66333.84;5068273;28;45276;-80
2022/11/23 04:16:53;;;;;;;;;6.00;6.00;;;;;-149.00;100.00;66333.84;5087958;28;45648;-80
2022/11/23 04:19:18;;;;;;;;;5.00;5.00;;;;;-149.00;100.00;66333.84;5087799;28;45326;-80
2022/11/23 04:21:43;;;;;;;;;6.00;6.00;;;;;-149.00;100.00;66333.84;5089206;28;45247;-80
2022/11/23 04:24:09;;;;;;;;;6.33;5.00;;;;;-149.00;100.00;66333.84;5065876;28;45461;-80
2022/11/23 04:26:34;;;;;;;;;5.00;5.00;;;;;-149.00;100.00;66333.84;5092998;28;45637;-80
2022/11/23 04:28:59;;;;;;;;;5.33;4.33;;;;;-149.00;100.00;66333.84;5073429;28;47315;-80
2022/11/23 04:31:25;;;;;;;;;5.33;5.33;;;;;-149.00;100.00;66333.84;5070216;28;45421;-81
2022/11/23 04:33:54;;;;;;;;;6.33;5.67;;;;;-149.00;100.00;66333.84;5088161;28;45502;-80
2022/11/23 04:36:20;;;;;;;;;6.00;5.00;;;;;-149.00;100.00;66333.84;5073426;28;46598;-80
2022/11/23 04:38:45;;;;;;;;;5.00;5.00;;;;;-149.00;100.00;66333.84;5074041;28;46020;-80
2022/11/23 04:41:11;;;;;;;;;5.33;5.33;;;;;-149.00;100.00;66333.84;5090546;28;45144;-80
2022/11/23 04:43:36;;;;;;;;;6.67;5.00;;;;;-149.00;100.00;66333.84;5086773;28;45199;-81
2022/11/23 04:46:01;;;;;;;;;6.33;5.67;;;;;-149.00;100.00;66333.84;5071047;28;46491;-80
2022/11/23 04:48:27;;;;;;;;;4.33;4.33;;;;;-149.00;100.00;66333.84;5086272;28;45267;-80
2022/11/23 04:50:52;;;;;;;;;6.00;5.00;;;;;-149.00;100.00;66333.84;5083075;28;45272;-80
2022/11/23 04:53:18;;;;;;;;;5.33;4.33;;;;;-149.00;100.00;66333.84;5084951;28;45312;-80
2022/11/23 04:55:45;;;;;;;;;7.67;7.00;;;;;-149.00;100.00;66333.84;5065725;28;46117;-81
2022/11/23 04:58:10;;;;;;;;;11.00;7.67;;;;;-149.00;100.00;66333.84;5082761;28;46312;-81
2022/11/23 05:00:36;;;;;;;;;6.00;5.67;;;;;-149.00;100.00;66333.84;5081885;28;45298;-81
2022/11/23 05:03:01;;;;;;;;;5.00;5.00;;;;;-149.00;100.00;66333.84;5064999;28;45350;-80
2022/11/23 05:05:27;;;;;;;;;5.00;5.00;;;;;-149.00;100.00;66333.84;5067550;28;45377;-80
2022/11/23 05:07:52;;;;;;;;;4.33;3.67;;;;;-149.00;100.00;66333.84;5083425;28;46119;-80
2022/11/23 05:10:17;;;;;;;;;11.33;6.00;;;;;-149.00;100.00;66333.84;5081968;28;45348;-81
2022/11/23 05:12:43;;;;;;;;;5.33;4.67;;;;;-149.00;100.00;66333.84;5084155;28;45240;-80
2022/11/23 05:15:12;;;;;;;;;6.00;6.00;;;;;-149.00;100.00;66333.84;5065468;28;46183;-80
2022/11/23 05:17:37;;;;;;;;;6.67;5.67;;;;;-149.00;100.00;66333.84;5081203;28;46027;-81
2022/11/23 05:20:03;;;;;;;;;7.00;7.00;;;;;-149.00;100.00;66333.84;5080818;28;45200;-80
2022/11/23 05:22:28;;;;;;;;;5.00;5.00;;;;;-149.00;100.00;66333.84;5065756;28;45301;-80
2022/11/23 05:24:54;;;;;;;;;7.00;6.33;;;;;-149.00;100.00;66333.84;5084379;28;45267;-80
2022/11/23 05:27:19;;;;;;;;;4.00;4.00;;;;;-149.00;100.00;66333.84;5085399;28;45527;-80
2022/11/23 05:29:44;;;;;;;;;9.67;7.00;;;;;-149.00;100.00;66333.84;5086653;28;45422;-80
2022/11/23 05:32:10;;;;;;;;;8.00;7.00;;;;;-149.00;100.00;66333.84;5084013;28;45364;-80
2022/11/23 05:34:35;;;;;;;;;6.00;6.00;;;;;-149.00;100.00;66333.84;5067200;28;46859;-80
2022/11/23 05:37:00;;;;;;;;;7.33;6.33;;;;;-149.00;100.00;66333.84;5082264;28;46693;-80
2022/11/23 05:39:26;;;;;;;;;8.67;8.00;;;;;-149.00;100.00;66333.84;5066715;28;45409;-80
2022/11/23 05:41:51;;;;;;;;;10.00;6.33;;;;;-149.00;100.00;66333.84;5088948;28;45354;-81
2022/11/23 05:44:16;;;;;;;;;7.67;6.67;;;;;-149.00;100.00;66333.84;5087261;28;50386;-80
2022/11/23 05:46:41;;;;;;;;;6.67;6.67;;;;;-149.00;100.00;66333.84;5087438;28;47098;-80
2022/11/23 05:49:08;;;;;;;;;7.00;5.67;;;;;-149.00;100.00;66333.84;5088685;28;47714;-81
2022/11/23 05:51:34;;;;;;;;;5.00;5.00;;;;;-149.00;100.00;66333.84;5068081;28;45281;-81
2022/11/23 05:54:00;;;;;;;;;7.00;5.00;;;;;-149.00;100.00;66333.84;5083831;28;45313;-80
2022/11/23 05:56:26;;;;;;;;;5.33;5.33;;;;;-149.00;100.00;66333.84;5084983;28;45222;-80
2022/11/23 05:58:54;;;;;;;;;4.33;4.33;;;;;-149.00;100.00;66333.84;5066854;28;45406;-80
2022/11/23 06:01:19;;;;;;;;;3.33;3.33;;;;;-149.00;100.00;66333.84;5067821;28;45288;-81
2022/11/23 06:03:44;;;;;;;;;8.00;8.00;;;;;-149.00;100.00;66333.84;5067523;28;46254;-80
2022/11/23 06:06:10;;;;;;;;;6.00;5.00;;;;;-149.00;100.00;66333.84;5085698;28;45409;-80
2022/11/23 06:08:35;;;;;;;;;6.67;6.00;;;;;-149.00;100.00;66333.84;5084689;28;45665;-81
2022/11/23 06:11:01;;;;;;;;;6.67;6.00;;;;;-149.00;100.00;66333.84;5086645;28;45466;-81
2022/11/23 06:13:26;;;;;;;;;5.00;5.00;;;;;-149.00;100.00;66333.84;5087805;28;45361;-81
2022/11/23 06:15:52;;;;;;;;;5.00;5.00;;;;;-149.00;100.00;66333.84;5086125;28;46021;-80
2022/11/23 06:18:17;;;;;;;;;6.00;5.00;;;;;-149.00;100.00;66333.84;5067446;28;45601;-80
2022/11/23 06:20:42;;;;;;;;;7.00;5.00;;;;;-149.00;100.00;66333.84;5087109;28;45303;-80
2022/11/23 06:23:08;;;;;;;;;6.00;4.00;;;;;-149.00;100.00;66333.84;5085797;28;45387;-81
2022/11/23 06:25:33;;;;;;;;;6.00;4.00;;;;;-149.00;100.00;66333.84;5069952;28;46886;-80
2022/11/23 06:28:00;;;;;;;;;7.00;5.00;;;;;-149.00;100.00;66333.84;5083399;28;45299;-80
2022/11/23 06:30:27;;;;;;;;;5.33;5.33;;;;;-149.00;100.00;66333.84;5084225;28;45287;-80
2022/11/23 06:32:52;;;;;;;;;6.67;4.00;;;;;-149.00;100.00;66333.84;5083914;28;45512;-80
2022/11/23 06:35:18;;;;;;;;;6.00;5.67;;;;;-149.00;100.00;66333.84;5083073;28;45435;-80
2022/11/23 06:37:43;;;;;;;;;6.00;5.00;;;;;-149.00;100.00;66333.84;5083308;28;45310;-80
2022/11/23 06:40:10;;;;;;;;;4.00;4.00;;;;;-149.00;100.00;66333.84;5066199;28;45354;-80
2022/11/23 06:42:36;;;;;;;;;5.00;5.00;;;;;-149.00;100.00;66333.84;5087069;28;45355;-80
2022/11/23 06:45:01;;;;;;;;;4.67;4.67;;;;;-149.00;100.00;66333.84;5086999;28;45433;-81
2022/11/23 06:47:27;;;;;;;;;8.00;6.00;;;;;-149.00;100.00;66333.84;5070958;28;45360;-80
2022/11/23 06:49:53;;;;;;;;;6.33;6.33;;;;;-149.00;100.00;66333.84;5072831;28;45363;-81
2022/11/23 06:52:18;;;;;;;;;6.00;6.00;;;;;-149.00;100.00;66333.84;5071786;28;47390;-81
2022/11/23 06:54:43;;;;;;;;;5.00;5.00;;;;;-149.00;100.00;66333.84;5086407;28;45515;-81
2022/11/23 06:57:09;;;;;;;;;6.67;5.00;;;;;-149.00;100.00;66333.84;5090224;28;45520;-81
2022/11/23 06:59:35;;;;;;;;;7.00;7.00;;;;;-149.00;100.00;66333.84;5089528;28;44665;-80
2022/11/23 07:02:00;;;;;;;;;5.00;5.00;;;;;-149.00;100.00;66333.84;5086738;28;51138;-80
2022/11/23 07:04:25;;;;;;;;;4.67;4.33;;;;;-149.00;100.00;66333.84;5087420;28;46331;-81
2022/11/23 07:06:51;;;;;;;;;4.67;4.67;;;;;-149.00;100.00;66333.84;5089031;28;45282;-80
2022/11/23 07:09:16;;;;;;;;;6.00;3.33;;;;;-149.00;100.00;66333.84;5092359;28;45278;-81
2022/11/23 07:11:41;;;;;;;;;5.00;5.00;;;;;-149.00;100.00;66333.84;5067556;28;46829;-80
2022/11/23 07:14:07;;;;;;;;;4.00;4.00;;;;;-149.00;100.00;66333.84;5082261;28;45956;-80
2022/11/23 07:16:32;;;;;;;;;5.00;3.67;;;;;-149.00;100.00;66333.84;5085322;27;45387;-81
2022/11/23 07:18:58;;;;;;;;;4.00;4.00;;;;;-149.00;100.00;66333.84;5081086;27;45378;-81
2022/11/23 07:21:23;;;;;;;;;4.00;4.00;;;;;-149.00;100.00;66333.84;5085080;28;45426;-82
2022/11/23 07:23:49;;;;;;;;;4.00;4.00;;;;;-149.00;100.00;66333.84;5095423;27;45441;-80
2022/11/23 07:26:14;;;;;;;;;3.00;3.00;;;;;-149.00;100.00;66333.84;5066461;28;45276;-81
2022/11/23 07:28:40;;;;;;;;;3.67;2.00;;;;;-149.00;100.00;66333.84;5085229;28;45324;-81
2022/11/23 07:31:05;;;;;;;;;2.33;2.33;;;;;-149.00;100.00;66333.84;5095190;27;44847;-81
2022/11/23 07:33:30;;;;;;;;;2.67;2.67;;;;;-149.00;100.00;66333.84;5087098;27;46076;-81
2022/11/23 07:36:00;;;;;;;;;3.33;3.33;;;;;-149.00;100.00;66333.84;5085866;28;45400;-80
2022/11/23 07:38:25;;;;;;;;;3.00;3.00;;;;;-149.00;100.00;66333.84;5087195;28;45260;-80
2022/11/23 07:40:51;;;;;;;;;4.00;2.67;;;;;-149.00;100.00;66333.84;5089243;28;45358;-80
2022/11/23 07:43:16;;;;;;;;;2.00;2.00;;;;;-149.00;100.00;66333.84;5070049;28;47234;-80
2022/11/23 07:45:41;;;;;;;;;2.67;2.67;;;;;-149.00;100.00;66333.84;5070672;28;45278;-80
2022/11/23 07:48:08;;;;;;;;;3.00;3.00;;;;;-149.00;100.00;66333.84;5066935;28;45488;-80
2022/11/23 07:50:35;;;;;;;;;2.33;2.33;;;;;-149.00;100.00;66333.84;5081999;28;46370;-80
2022/11/23 07:53:02;;;;;;;;;1.00;1.00;;;;;-149.00;100.00;66333.84;5062898;28;49167;-83
2022/11/23 07:55:29;;;;;;;;;2.67;2.67;;;;;-149.00;100.00;66333.84;5063272;28;45368;-81
2022/11/23 07:57:55;;;;;;;;;3.00;3.00;;;;;-149.00;100.00;66333.84;5062793;28;45320;-82
2022/11/23 08:00:25;;;;;;;;;2.00;2.00;;;;;-149.00;100.00;66333.84;5061346;28;46136;-81
2022/11/23 08:02:53;;;;;;;;;4.00;2.00;;;;;-149.00;100.00;66333.84;5047873;28;45607;-82
2022/11/23 08:05:21;;;;;;;;;3.00;3.00;;;;;-149.00;100.00;66333.84;5061812;28;45385;-83
2022/11/23 08:08:08;;;;;;;;;3.33;3.00;;;;;-149.00;100.00;66333.84;5061856;28;45382;-79
2022/11/23 08:10:34;;;;;;;;;2.00;1.00;;;;;-149.00;100.00;66333.84;5061751;28;46633;-81
2022/11/23 08:13:05;;;;;;;;;2.00;2.00;;;;;-149.00;100.00;66333.84;5061627;28;45425;-82
2022/11/23 08:15:31;;;;;;;;;2.00;2.00;;;;;-149.00;100.00;66333.84;5062023;28;45452;-81
2022/11/23 08:17:57;;;;;;;;;2.00;2.00;;;;;-149.00;100.00;66333.84;5062352;28;45296;-83
2022/11/23 08:20:27;;;;;;;;;5.00;3.00;;;;;-149.00;100.00;66333.84;5080101;28;45361;-83
2022/11/23 08:22:56;;;;;;;;;4.33;2.67;;;;;-149.00;100.00;66333.84;5079595;28;45453;-79
2022/11/23 08:25:25;;;;;;;;;3.33;2.33;;;;;-149.00;100.00;66333.84;5061618;28;45525;-80
2022/11/23 08:27:55;;;;;;;;;2.33;2.33;;;;;-149.00;100.00;66333.84;5081571;28;45359;-81
2022/11/23 08:30:24;;;;;;;;;1.67;1.67;;;;;-149.00;100.00;66333.84;5079660;28;45436;-84
2022/11/23 08:32:56;;;;;;;;;3.00;2.00;;;;;-149.00;100.00;66333.84;5061828;28;46943;-83
2022/11/23 08:35:22;;;;;;;;;1.33;1.00;;;;;-149.00;100.00;66333.84;5080229;28;45340;-80
2022/11/23 08:37:47;;;;;;;;;3.67;2.33;;;;;-149.00;100.00;66333.84;5061719;28;45456;-81
2022/11/23 08:40:16;;;;;;;;;2.00;2.00;;;;;-149.00;100.00;66333.84;5080155;28;45330;-80
2022/11/23 08:42:41;;;;;;;;;4.00;2.00;;;;;-149.00;100.00;66333.84;5061666;28;47130;-81
2022/11/23 08:45:07;;;;;;;;;3.00;3.00;;;;;-149.00;100.00;66333.84;5061370;28;45325;-81
2022/11/23 08:47:33;;;;;;;;;3.33;2.00;;;;;-149.00;100.00;66333.84;5080161;28;45472;-82
2022/11/23 08:50:01;;;;;;;;;2.00;2.00;;;;;-149.00;100.00;66333.84;5080238;28;45380;-80
2022/11/23 08:52:26;;;;;;;;;1.33;1.33;;;;;-149.00;100.00;66333.84;5061213;28;46432;-80
2022/11/23 08:55:00;;;;;;;;;2.00;2.00;;;;;-149.00;100.00;66333.84;5061742;28;45332;-82
2022/11/23 08:57:26;;;;;;;;;1.00;1.00;;;;;-149.00;100.00;66333.84;5061326;28;45183;-82
2022/11/23 08:59:58;;;;;;;;;1.67;1.67;;;;;-149.00;100.00;66333.84;5060839;28;47288;-82
2022/11/23 09:02:28;;;;;;;;;1.33;1.33;;;;;-149.00;100.00;66333.84;5060682;28;47293;-82
2022/11/23 09:05:04;;;;;;;;;2.00;2.00;;;;;-149.00;100.00;66333.84;5052956;27;45532;-82
2022/11/23 09:07:35;;;;;;;;;2.00;2.00;;;;;-149.00;100.00;66333.84;5085320;27;45322;-83
2022/11/23 09:10:00;;;;;;;;;3.33;3.33;;;;;-149.00;100.00;66333.84;5079722;28;45478;-81
2022/11/23 09:12:32;;;;;;;;;2.00;1.00;;;;;-149.00;100.00;66333.84;5080447;28;46291;-83
2022/11/23 09:14:58;;;;;;;;;1.00;1.00;;;;;-149.00;100.00;66333.84;5064444;28;45458;-81
2022/11/23 09:17:26;;;;;;;;;2.33;2.33;;;;;-149.00;100.00;66333.84;5076721;27;45406;-84
2022/11/23 09:20:01;;;;;;;;;1.67;1.00;;;;;-149.00;100.00;66333.84;5053033;28;45592;-84
2022/11/23 09:22:27;;;;;;;;;1.00;1.00;;;;;-149.00;100.00;66333.84;5062250;28;45540;-82
2022/11/23 09:24:58;;;;;;;;;3.00;3.00;;;;;-149.00;100.00;66333.84;5083400;28;45358;-83
2022/11/23 09:27:23;;;;;;;;;2.00;2.00;;;;;-149.00;100.00;66333.84;5072394;27;45434;-81
2022/11/23 09:29:49;;;;;;;;;2.00;2.00;;;;;-149.00;100.00;66333.84;5098879;27;45288;-82
2022/11/23 09:32:17;;;;;;;;;1.67;1.67;;;;;-149.00;100.00;66333.84;5067488;28;47005;-82
2022/11/23 09:34:44;;;;;;;;;2.67;1.67;;;;;-149.00;100.00;66333.84;5088818;27;45341;-84
2022/11/23 09:37:10;;;;;;;;;2.00;1.33;;;;;-149.00;100.00;66333.84;5061405;28;45259;-83
2022/11/23 09:39:35;;;;;;;;;3.00;2.00;;;;;-149.00;100.00;66333.84;5075062;27;46867;-84
2022/11/23 09:42:04;;;;;;;;;3.00;3.00;;;;;-149.00;100.00;66333.84;5065869;28;47945;-80
2022/11/23 09:45:14;;;;;;;;;2.00;2.00;;;;;-149.00;100.00;66333.84;5064562;28;45388;-80
2022/11/23 09:48:10;;;;;;;;;2.00;2.00;;;;;-149.00;100.00;66333.84;5043741;28;45612;-81
2022/11/23 09:50:48;;;;;;;;;1.67;1.67;;;;;-149.00;100.00;66333.84;5070693;28;45453;-81
2022/11/23 09:53:42;;;;;;;;;2.00;2.00;;;;;-149.00;100.00;66333.84;5082938;28;45999;-80
2022/11/23 09:56:17;;;;;;;;;2.00;1.67;;;;;-149.00;100.00;66333.84;5063844;28;45865;-82
2022/11/23 09:58:42;;;;;;;;;1.00;1.00;;;;;-149.00;100.00;66333.84;5081955;28;45353;-81
2022/11/23 10:01:14;;;;;;;;;5.00;4.00;;;;;-149.00;100.00;66333.84;5079492;28;45493;-82
2022/11/23 10:03:41;;;;;;;;;2.00;1.00;;;;;-149.00;100.00;66333.84;5061459;27;46356;-82
2022/11/23 10:06:26;;;;;;;;;2.33;2.33;;;;;-149.00;100.00;66333.84;5062383;28;45589;-82
2022/11/23 10:09:28;;;;;;;;;2.33;2.33;;;;;-149.00;100.00;66333.84;5081585;28;45466;-82
2022/11/23 10:12:11;;;;;;;;;7.33;6.33;;;;;-149.00;100.00;66333.84;5081674;28;45319;-81
2022/11/23 10:14:51;;;;;;;;;10.00;9.00;;;;;-149.00;100.00;66333.84;5081009;28;46641;-82
2022/11/23 10:17:26;;;;;;;;;11.33;10.67;;;;;-149.00;100.00;66333.84;5062835;28;45362;-81
2022/11/23 10:20:16;;;;;;;;;9.67;9.67;;;;;-149.00;100.00;66333.84;5081074;28;45369;-80
2022/11/23 10:23:00;;;;;;;;;11.33;11.33;;;;;-149.00;100.00;66333.84;5081069;28;45355;-80
2022/11/23 10:25:32;;;;;;;;;4.67;3.67;;;;;-149.00;100.00;66333.84;5081186;28;45367;-81
2022/11/23 10:28:11;;;;;;;;;15.33;14.33;;;;;-149.00;100.00;66333.84;5081123;28;45669;-80
2022/11/23 10:30:37;;;;;;;;;57.50;48.00;;;;;-149.00;100.00;66333.84;5063245;28;45475;-78
2022/11/23 10:33:18;;;;;;;;;63.25;49.50;;;;;-149.00;100.00;66333.84;5063330;28;47018;-79
2022/11/23 10:35:43;;;;;;;;;10.67;9.33;;;;;-149.00;100.00;66333.84;5068178;28;46832;-80
2022/11/23 10:38:17;;;;;;;;;16.00;16.00;;;;;-149.00;100.00;66333.84;5081453;28;45424;-78
2022/11/23 10:41:07;;;;;;;;;27.67;26.67;;;;;-149.00;100.00;66333.84;5082889;28;45365;-78
2022/11/23 10:43:52;;;;;;;;;16.33;14.67;;;;;-149.00;100.00;66333.84;5082932;28;45354;-78
2022/11/23 10:46:38;;;;;;;;;24.00;24.00;;;;;-149.00;100.00;66333.84;5021004;28;47109;-77
2022/11/23 10:49:25;;;;;;;;;22.00;22.00;;;;;-149.00;100.00;66333.84;5083749;28;45321;-77
2022/11/23 10:51:55;;;;;;;;;18.33;18.33;;;;;-149.00;100.00;66333.84;5083234;28;45361;-76
2022/11/23 10:54:26;;;;;;;;;25.33;25.33;;;;;-149.00;100.00;66333.84;5048989;28;46711;-77
2022/11/23 10:56:53;;;;;;;;;28.33;27.33;;;;;-149.00;100.00;66333.84;5082034;28;46208;-77
2022/11/23 10:59:37;;;;;;;;;32.67;30.67;;;;;-149.00;100.00;66333.84;5062892;28;45926;-77
2022/11/23 11:02:21;;;;;;;;;16.67;16.67;;;;;-149.00;100.00;66333.84;5076109;28;45482;-76
2022/11/23 11:04:49;;;;;;;;;5.00;5.00;;;;;-149.00;100.00;66333.84;5049414;28;46332;-76
2022/11/23 11:07:28;;;;;;;;;19.67;17.67;;;;;-149.00;100.00;66333.84;5072817;28;45793;-76
2022/11/23 11:09:57;;;;;;;;;30.00;28.00;;;;;-149.00;100.00;66333.84;5065787;28;45357;-76
2022/11/23 11:12:24;;;;;;;;;18.67;18.67;;;;;-149.00;100.00;66333.84;5071330;28;45390;-76